sensor_id;sensor_type;location;lat;lon;timestamp;P1;durP1;ratioP1;P2;durP2;ratioP2
76447;SDS011;65284;51.040;13.722;2023-04-02T00:04:02;7.07;;;3.83;;
76447;SDS011;65284;51.040;13.722;2023-04-02T00:11:43;6.00;;;3.42;;
76447;SDS011;65284;51.040;13.722;2023-04-02T00:16:47;5.40;;;3.15;;
76447;SDS011;65284;51.040;13.722;2023-04-02T00:19:15;4.90;;;3.00;;
76447;SDS011;65284;51.040;13.722;2023-04-02T00:21:48;4.78;;;2.90;;
76447;SDS011;65284;51.040;13.722;2023-04-02T00:24:16;4.53;;;2.70;;
76447;SDS011;65284;51.040;13.722;2023-04-02T00:26:47;5.10;;;2.85;;
76447;SDS011;65284;51.040;13.722;2023-04-02T00:29:16;4.82;;;2.55;;
76447;SDS011;65284;51.040;13.722;2023-04-02T00:31:45;4.78;;;2.70;;
76447;SDS011;65284;51.040;13.722;2023-04-02T00:34:34;5.18;;;3.00;;
76447;SDS011;65284;51.040;13.722;2023-04-02T00:37:02;5.60;;;3.10;;
76447;SDS011;65284;51.040;13.722;2023-04-02T00:39:31;5.15;;;2.88;;
76447;SDS011;65284;51.040;13.722;2023-04-02T00:42:04;5.32;;;2.75;;
76447;SDS011;65284;51.040;13.722;2023-04-02T00:44:31;5.88;;;2.83;;
76447;SDS011;65284;51.040;13.722;2023-04-02T00:47:06;6.72;;;3.08;;
76447;SDS011;65284;51.040;13.722;2023-04-02T00:49:38;5.78;;;3.15;;
76447;SDS011;65284;51.040;13.722;2023-04-02T00:52:08;5.95;;;3.15;;
76447;SDS011;65284;51.040;13.722;2023-04-02T00:57:32;6.18;;;3.25;;
76447;SDS011;65284;51.040;13.722;2023-04-02T01:00:00;6.03;;;3.20;;
76447;SDS011;65284;51.040;13.722;2023-04-02T01:02:40;6.10;;;3.30;;
76447;SDS011;65284;51.040;13.722;2023-04-02T01:15:52;6.03;;;3.60;;
76447;SDS011;65284;51.040;13.722;2023-04-02T01:24:13;7.38;;;3.70;;
76447;SDS011;65284;51.040;13.722;2023-04-02T01:26:50;5.88;;;3.63;;
76447;SDS011;65284;51.040;13.722;2023-04-02T01:29:48;8.30;;;3.85;;
76447;SDS011;65284;51.040;13.722;2023-04-02T01:32:22;7.07;;;3.97;;
76447;SDS011;65284;51.040;13.722;2023-04-02T01:34:50;6.88;;;3.53;;
76447;SDS011;65284;51.040;13.722;2023-04-02T01:37:21;7.20;;;3.83;;
76447;SDS011;65284;51.040;13.722;2023-04-02T01:43:12;8.40;;;4.57;;
76447;SDS011;65284;51.040;13.722;2023-04-02T01:45:47;7.55;;;4.25;;
76447;SDS011;65284;51.040;13.722;2023-04-02T01:48:18;6.25;;;3.60;;
76447;SDS011;65284;51.040;13.722;2023-04-02T01:50:50;9.48;;;4.80;;
76447;SDS011;65284;51.040;13.722;2023-04-02T01:53:20;8.20;;;4.28;;
76447;SDS011;65284;51.040;13.722;2023-04-02T01:55:53;8.07;;;4.28;;
76447;SDS011;65284;51.040;13.722;2023-04-02T01:58:22;7.75;;;4.43;;
76447;SDS011;65284;51.040;13.722;2023-04-02T02:01:07;7.53;;;3.78;;
76447;SDS011;65284;51.040;13.722;2023-04-02T02:03:42;7.75;;;3.95;;
76447;SDS011;65284;51.040;13.722;2023-04-02T02:06:10;7.55;;;4.15;;
76447;SDS011;65284;51.040;13.722;2023-04-02T02:11:13;5.07;;;2.85;;
76447;SDS011;65284;51.040;13.722;2023-04-02T02:13:46;4.72;;;2.55;;
76447;SDS011;65284;51.040;13.722;2023-04-02T02:16:18;4.90;;;2.83;;
76447;SDS011;65284;51.040;13.722;2023-04-02T02:18:45;5.63;;;3.40;;
76447;SDS011;65284;51.040;13.722;2023-04-02T02:21:21;5.88;;;3.17;;
76447;SDS011;65284;51.040;13.722;2023-04-02T02:23:57;6.00;;;3.05;;
76447;SDS011;65284;51.040;13.722;2023-04-02T02:26:25;6.10;;;3.10;;
76447;SDS011;65284;51.040;13.722;2023-04-02T02:28:54;4.65;;;2.72;;
76447;SDS011;65284;51.040;13.722;2023-04-02T02:31:23;6.00;;;3.40;;
76447;SDS011;65284;51.040;13.722;2023-04-02T02:33:56;5.60;;;3.15;;
76447;SDS011;65284;51.040;13.722;2023-04-02T02:36:29;5.90;;;2.83;;
76447;SDS011;65284;51.040;13.722;2023-04-02T02:39:07;6.22;;;3.10;;
76447;SDS011;65284;51.040;13.722;2023-04-02T02:44:16;5.32;;;2.92;;
76447;SDS011;65284;51.040;13.722;2023-04-02T02:46:51;4.55;;;2.92;;
76447;SDS011;65284;51.040;13.722;2023-04-02T02:49:27;5.18;;;3.00;;
76447;SDS011;65284;51.040;13.722;2023-04-02T02:51:58;5.32;;;3.00;;
76447;SDS011;65284;51.040;13.722;2023-04-02T02:54:31;4.55;;;2.38;;
76447;SDS011;65284;51.040;13.722;2023-04-02T02:57:02;4.82;;;2.60;;
76447;SDS011;65284;51.040;13.722;2023-04-02T02:59:32;4.38;;;2.50;;
76447;SDS011;65284;51.040;13.722;2023-04-02T03:01:59;3.78;;;2.28;;
76447;SDS011;65284;51.040;13.722;2023-04-02T03:04:27;4.65;;;2.80;;
76447;SDS011;65284;51.040;13.722;2023-04-02T03:07:00;4.38;;;2.05;;
76447;SDS011;65284;51.040;13.722;2023-04-02T03:12:49;3.50;;;2.20;;
76447;SDS011;65284;51.040;13.722;2023-04-02T03:15:31;3.22;;;1.95;;
76447;SDS011;65284;51.040;13.722;2023-04-02T03:18:01;3.40;;;1.90;;
76447;SDS011;65284;51.040;13.722;2023-04-02T03:20:39;3.55;;;1.88;;
76447;SDS011;65284;51.040;13.722;2023-04-02T03:23:21;3.25;;;1.60;;
76447;SDS011;65284;51.040;13.722;2023-04-02T03:25:58;3.75;;;2.05;;
76447;SDS011;65284;51.040;13.722;2023-04-02T03:28:31;2.90;;;1.80;;
76447;SDS011;65284;51.040;13.722;2023-04-02T03:31:04;4.28;;;2.05;;
76447;SDS011;65284;51.040;13.722;2023-04-02T03:33:35;2.50;;;1.52;;
76447;SDS011;65284;51.040;13.722;2023-04-02T03:36:11;3.65;;;1.50;;
76447;SDS011;65284;51.040;13.722;2023-04-02T03:39:32;3.00;;;1.25;;
76447;SDS011;65284;51.040;13.722;2023-04-02T03:41:45;2.05;;;1.20;;
76447;SDS011;65284;51.040;13.722;2023-04-02T03:44:23;4.45;;;1.23;;
76447;SDS011;65284;51.040;13.722;2023-04-02T03:46:54;3.47;;;1.58;;
76447;SDS011;65284;51.040;13.722;2023-04-02T03:49:33;2.67;;;1.50;;
76447;SDS011;65284;51.040;13.722;2023-04-02T03:52:09;3.22;;;1.45;;
76447;SDS011;65284;51.040;13.722;2023-04-02T03:54:39;3.75;;;1.80;;
76447;SDS011;65284;51.040;13.722;2023-04-02T04:00:21;4.68;;;1.75;;
76447;SDS011;65284;51.040;13.722;2023-04-02T04:02:50;3.05;;;1.48;;
76447;SDS011;65284;51.040;13.722;2023-04-02T04:07:56;3.53;;;1.70;;
76447;SDS011;65284;51.040;13.722;2023-04-02T04:10:27;3.00;;;1.60;;
76447;SDS011;65284;51.040;13.722;2023-04-02T04:12:55;4.35;;;2.00;;
76447;SDS011;65284;51.040;13.722;2023-04-02T04:15:34;4.00;;;2.05;;
76447;SDS011;65284;51.040;13.722;2023-04-02T04:18:08;3.58;;;1.75;;
76447;SDS011;65284;51.040;13.722;2023-04-02T04:20:57;4.25;;;1.90;;
76447;SDS011;65284;51.040;13.722;2023-04-02T04:23:33;4.18;;;1.98;;
76447;SDS011;65284;51.040;13.722;2023-04-02T04:26:04;4.35;;;1.92;;
76447;SDS011;65284;51.040;13.722;2023-04-02T04:29:05;3.72;;;2.13;;
76447;SDS011;65284;51.040;13.722;2023-04-02T04:31:47;5.53;;;2.40;;
76447;SDS011;65284;51.040;13.722;2023-04-02T04:34:16;5.10;;;2.50;;
76447;SDS011;65284;51.040;13.722;2023-04-02T04:36:51;4.60;;;2.70;;
76447;SDS011;65284;51.040;13.722;2023-04-02T04:39:24;4.43;;;2.55;;
76447;SDS011;65284;51.040;13.722;2023-04-02T04:41:56;5.78;;;3.15;;
76447;SDS011;65284;51.040;13.722;2023-04-02T04:47:38;7.25;;;3.63;;
76447;SDS011;65284;51.040;13.722;2023-04-02T04:50:17;6.30;;;3.42;;
76447;SDS011;65284;51.040;13.722;2023-04-02T04:53:06;6.60;;;3.30;;
76447;SDS011;65284;51.040;13.722;2023-04-02T04:55:39;6.55;;;3.72;;
76447;SDS011;65284;51.040;13.722;2023-04-02T05:03:34;6.82;;;3.22;;
76447;SDS011;65284;51.040;13.722;2023-04-02T05:06:10;5.97;;;3.30;;
76447;SDS011;65284;51.040;13.722;2023-04-02T05:11:35;5.82;;;2.60;;
76447;SDS011;65284;51.040;13.722;2023-04-02T05:14:05;5.30;;;2.47;;
76447;SDS011;65284;51.040;13.722;2023-04-02T05:16:39;7.50;;;2.53;;
76447;SDS011;65284;51.040;13.722;2023-04-02T05:21:56;5.28;;;2.50;;
76447;SDS011;65284;51.040;13.722;2023-04-02T05:24:36;5.07;;;2.47;;
76447;SDS011;65284;51.040;13.722;2023-04-02T05:27:28;6.20;;;2.67;;
76447;SDS011;65284;51.040;13.722;2023-04-02T05:32:53;5.35;;;2.38;;
76447;SDS011;65284;51.040;13.722;2023-04-02T05:35:25;5.20;;;2.42;;
76447;SDS011;65284;51.040;13.722;2023-04-02T05:37:58;7.20;;;3.88;;
76447;SDS011;65284;51.040;13.722;2023-04-02T05:40:29;7.82;;;4.78;;
76447;SDS011;65284;51.040;13.722;2023-04-02T05:42:59;9.80;;;4.40;;
76447;SDS011;65284;51.040;13.722;2023-04-02T05:45:36;7.85;;;4.35;;
76447;SDS011;65284;51.040;13.722;2023-04-02T05:48:12;7.63;;;4.45;;
76447;SDS011;65284;51.040;13.722;2023-04-02T05:50:46;8.45;;;4.55;;
76447;SDS011;65284;51.040;13.722;2023-04-02T05:53:20;9.38;;;4.70;;
76447;SDS011;65284;51.040;13.722;2023-04-02T05:55:55;10.02;;;4.88;;
76447;SDS011;65284;51.040;13.722;2023-04-02T05:58:28;7.60;;;3.90;;
76447;SDS011;65284;51.040;13.722;2023-04-02T06:04:30;6.55;;;3.80;;
76447;SDS011;65284;51.040;13.722;2023-04-02T06:07:04;5.18;;;2.88;;
76447;SDS011;65284;51.040;13.722;2023-04-02T06:15:04;6.40;;;3.03;;
76447;SDS011;65284;51.040;13.722;2023-04-02T06:17:32;6.65;;;3.50;;
76447;SDS011;65284;51.040;13.722;2023-04-02T06:20:28;7.88;;;3.95;;
76447;SDS011;65284;51.040;13.722;2023-04-02T06:23:02;6.88;;;3.92;;
76447;SDS011;65284;51.040;13.722;2023-04-02T06:25:34;8.57;;;4.05;;
76447;SDS011;65284;51.040;13.722;2023-04-02T06:28:05;9.15;;;4.00;;
76447;SDS011;65284;51.040;13.722;2023-04-02T06:30:37;7.78;;;4.13;;
76447;SDS011;65284;51.040;13.722;2023-04-02T06:33:07;9.00;;;4.22;;
76447;SDS011;65284;51.040;13.722;2023-04-02T06:35:39;8.13;;;3.40;;
76447;SDS011;65284;51.040;13.722;2023-04-02T06:40:43;7.18;;;3.33;;
76447;SDS011;65284;51.040;13.722;2023-04-02T06:43:31;7.10;;;3.60;;
76447;SDS011;65284;51.040;13.722;2023-04-02T06:46:05;6.43;;;3.47;;
76447;SDS011;65284;51.040;13.722;2023-04-02T06:48:36;7.00;;;3.50;;
76447;SDS011;65284;51.040;13.722;2023-04-02T06:51:06;7.03;;;3.10;;
76447;SDS011;65284;51.040;13.722;2023-04-02T06:53:36;7.00;;;3.10;;
76447;SDS011;65284;51.040;13.722;2023-04-02T06:56:12;5.95;;;3.17;;
76447;SDS011;65284;51.040;13.722;2023-04-02T06:58:47;5.82;;;3.22;;
76447;SDS011;65284;51.040;13.722;2023-04-02T07:01:17;6.50;;;2.85;;
76447;SDS011;65284;51.040;13.722;2023-04-02T07:03:48;5.55;;;2.75;;
76447;SDS011;65284;51.040;13.722;2023-04-02T07:06:16;6.72;;;2.72;;
76447;SDS011;65284;51.040;13.722;2023-04-02T07:08:44;5.97;;;2.45;;
76447;SDS011;65284;51.040;13.722;2023-04-02T07:11:12;6.40;;;3.03;;
76447;SDS011;65284;51.040;13.722;2023-04-02T07:16:07;7.07;;;2.70;;
76447;SDS011;65284;51.040;13.722;2023-04-02T07:18:40;7.85;;;2.90;;
76447;SDS011;65284;51.040;13.722;2023-04-02T07:21:07;5.55;;;2.70;;
76447;SDS011;65284;51.040;13.722;2023-04-02T07:23:34;10.15;;;3.80;;
76447;SDS011;65284;51.040;13.722;2023-04-02T07:26:00;6.90;;;3.20;;
76447;SDS011;65284;51.040;13.722;2023-04-02T07:28:27;8.00;;;2.63;;
76447;SDS011;65284;51.040;13.722;2023-04-02T07:30:54;6.43;;;3.30;;
76447;SDS011;65284;51.040;13.722;2023-04-02T07:33:22;6.72;;;2.75;;
76447;SDS011;65284;51.040;13.722;2023-04-02T07:35:51;7.97;;;2.75;;
76447;SDS011;65284;51.040;13.722;2023-04-02T07:38:20;7.75;;;3.50;;
76447;SDS011;65284;51.040;13.722;2023-04-02T07:40:46;7.78;;;3.50;;
76447;SDS011;65284;51.040;13.722;2023-04-02T07:43:12;6.07;;;3.10;;
76447;SDS011;65284;51.040;13.722;2023-04-02T07:45:39;6.18;;;2.90;;
76447;SDS011;65284;51.040;13.722;2023-04-02T07:48:06;8.07;;;3.10;;
76447;SDS011;65284;51.040;13.722;2023-04-02T07:50:38;7.65;;;3.33;;
76447;SDS011;65284;51.040;13.722;2023-04-02T07:53:04;6.05;;;2.53;;
76447;SDS011;65284;51.040;13.722;2023-04-02T07:55:32;7.15;;;3.38;;
76447;SDS011;65284;51.040;13.722;2023-04-02T07:57:59;5.55;;;2.80;;
76447;SDS011;65284;51.040;13.722;2023-04-02T08:00:25;10.57;;;4.25;;
76447;SDS011;65284;51.040;13.722;2023-04-02T08:02:53;6.70;;;2.67;;
76447;SDS011;65284;51.040;13.722;2023-04-02T08:05:20;7.18;;;3.03;;
76447;SDS011;65284;51.040;13.722;2023-04-02T08:07:53;5.70;;;2.90;;
76447;SDS011;65284;51.040;13.722;2023-04-02T08:10:21;6.68;;;2.75;;
76447;SDS011;65284;51.040;13.722;2023-04-02T08:12:48;7.50;;;3.28;;
76447;SDS011;65284;51.040;13.722;2023-04-02T08:15:15;7.55;;;3.00;;
76447;SDS011;65284;51.040;13.722;2023-04-02T08:17:42;7.57;;;3.60;;
76447;SDS011;65284;51.040;13.722;2023-04-02T08:20:19;6.32;;;3.10;;
76447;SDS011;65284;51.040;13.722;2023-04-02T08:22:47;7.68;;;3.30;;
76447;SDS011;65284;51.040;13.722;2023-04-02T08:25:14;8.52;;;3.40;;
76447;SDS011;65284;51.040;13.722;2023-04-02T08:27:41;7.40;;;3.67;;
76447;SDS011;65284;51.040;13.722;2023-04-02T08:30:09;9.30;;;3.20;;
76447;SDS011;65284;51.040;13.722;2023-04-02T08:32:37;6.25;;;3.30;;
76447;SDS011;65284;51.040;13.722;2023-04-02T08:35:06;4.50;;;2.35;;
76447;SDS011;65284;51.040;13.722;2023-04-02T08:37:37;3.85;;;2.15;;
76447;SDS011;65284;51.040;13.722;2023-04-02T08:40:04;6.60;;;3.03;;
76447;SDS011;65284;51.040;13.722;2023-04-02T08:48:26;12.68;;;6.10;;
76447;SDS011;65284;51.040;13.722;2023-04-02T08:50:56;5.97;;;3.40;;
76447;SDS011;65284;51.040;13.722;2023-04-02T08:53:24;6.57;;;3.28;;
76447;SDS011;65284;51.040;13.722;2023-04-02T08:55:57;6.00;;;3.13;;
76447;SDS011;65284;51.040;13.722;2023-04-02T08:58:41;4.55;;;2.30;;
76447;SDS011;65284;51.040;13.722;2023-04-02T09:01:13;6.88;;;2.28;;
76447;SDS011;65284;51.040;13.722;2023-04-02T09:04:02;5.10;;;2.28;;
76447;SDS011;65284;51.040;13.722;2023-04-02T09:06:32;4.22;;;2.22;;
76447;SDS011;65284;51.040;13.722;2023-04-02T09:08:58;3.50;;;1.90;;
76447;SDS011;65284;51.040;13.722;2023-04-02T09:11:38;4.68;;;2.00;;
76447;SDS011;65284;51.040;13.722;2023-04-02T09:14:12;5.55;;;2.30;;
76447;SDS011;65284;51.040;13.722;2023-04-02T09:16:50;3.95;;;2.10;;
76447;SDS011;65284;51.040;13.722;2023-04-02T09:19:20;4.68;;;2.20;;
76447;SDS011;65284;51.040;13.722;2023-04-02T09:21:55;3.75;;;1.63;;
76447;SDS011;65284;51.040;13.722;2023-04-02T09:24:29;3.72;;;1.92;;
76447;SDS011;65284;51.040;13.722;2023-04-02T09:26:55;6.53;;;2.45;;
76447;SDS011;65284;51.040;13.722;2023-04-02T09:29:34;4.00;;;2.60;;
76447;SDS011;65284;51.040;13.722;2023-04-02T09:32:13;4.85;;;2.25;;
76447;SDS011;65284;51.040;13.722;2023-04-02T09:34:49;6.38;;;2.40;;
76447;SDS011;65284;51.040;13.722;2023-04-02T09:37:17;7.97;;;2.63;;
76447;SDS011;65284;51.040;13.722;2023-04-02T09:39:47;5.13;;;2.35;;
76447;SDS011;65284;51.040;13.722;2023-04-02T09:42:28;3.95;;;2.08;;
76447;SDS011;65284;51.040;13.722;2023-04-02T09:45:10;4.00;;;2.15;;
76447;SDS011;65284;51.040;13.722;2023-04-02T09:47:38;7.38;;;2.15;;
76447;SDS011;65284;51.040;13.722;2023-04-02T09:52:46;8.63;;;3.53;;
76447;SDS011;65284;51.040;13.722;2023-04-02T09:57:40;3.78;;;1.92;;
76447;SDS011;65284;51.040;13.722;2023-04-02T10:03:27;4.43;;;2.08;;
76447;SDS011;65284;51.040;13.722;2023-04-02T10:06:08;4.45;;;2.47;;
76447;SDS011;65284;51.040;13.722;2023-04-02T10:08:38;5.30;;;2.40;;
76447;SDS011;65284;51.040;13.722;2023-04-02T10:13:45;6.35;;;2.83;;
76447;SDS011;65284;51.040;13.722;2023-04-02T10:16:20;4.57;;;2.45;;
76447;SDS011;65284;51.040;13.722;2023-04-02T10:19:03;5.70;;;2.67;;
76447;SDS011;65284;51.040;13.722;2023-04-02T10:21:38;6.95;;;2.13;;
76447;SDS011;65284;51.040;13.722;2023-04-02T10:24:11;4.20;;;2.00;;
76447;SDS011;65284;51.040;13.722;2023-04-02T10:26:47;5.68;;;2.28;;
76447;SDS011;65284;51.040;13.722;2023-04-02T10:32:10;4.00;;;1.70;;
76447;SDS011;65284;51.040;13.722;2023-04-02T10:40:26;4.05;;;1.80;;
76447;SDS011;65284;51.040;13.722;2023-04-02T10:43:08;5.10;;;1.85;;
76447;SDS011;65284;51.040;13.722;2023-04-02T10:45:59;4.22;;;1.90;;
76447;SDS011;65284;51.040;13.722;2023-04-02T10:51:30;4.93;;;1.88;;
76447;SDS011;65284;51.040;13.722;2023-04-02T10:54:16;3.60;;;1.50;;
76447;SDS011;65284;51.040;13.722;2023-04-02T10:57:06;3.63;;;1.60;;
76447;SDS011;65284;51.040;13.722;2023-04-02T10:59:41;3.88;;;1.60;;
76447;SDS011;65284;51.040;13.722;2023-04-02T11:02:22;4.32;;;1.80;;
76447;SDS011;65284;51.040;13.722;2023-04-02T11:04:53;4.55;;;1.90;;
76447;SDS011;65284;51.040;13.722;2023-04-02T11:07:27;5.00;;;2.05;;
76447;SDS011;65284;51.040;13.722;2023-04-02T11:09:58;3.90;;;1.70;;
76447;SDS011;65284;51.040;13.722;2023-04-02T11:12:42;5.35;;;1.90;;
76447;SDS011;65284;51.040;13.722;2023-04-02T11:15:15;5.70;;;2.20;;
76447;SDS011;65284;51.040;13.722;2023-04-02T11:17:44;4.32;;;2.15;;
76447;SDS011;65284;51.040;13.722;2023-04-02T11:23:20;4.32;;;2.13;;
76447;SDS011;65284;51.040;13.722;2023-04-02T11:25:47;5.72;;;2.55;;
76447;SDS011;65284;51.040;13.722;2023-04-02T11:30:54;4.97;;;2.50;;
76447;SDS011;65284;51.040;13.722;2023-04-02T11:33:23;6.72;;;2.58;;
76447;SDS011;65284;51.040;13.722;2023-04-02T11:42:27;6.35;;;3.35;;
76447;SDS011;65284;51.040;13.722;2023-04-02T11:55:39;6.85;;;2.88;;
76447;SDS011;65284;51.040;13.722;2023-04-02T12:03:35;5.40;;;2.67;;
76447;SDS011;65284;51.040;13.722;2023-04-02T12:09:18;6.53;;;2.70;;
76447;SDS011;65284;51.040;13.722;2023-04-02T12:11:48;5.70;;;2.20;;
76447;SDS011;65284;51.040;13.722;2023-04-02T12:17:02;5.47;;;2.30;;
76447;SDS011;65284;51.040;13.722;2023-04-02T12:19:32;5.72;;;2.65;;
76447;SDS011;65284;51.040;13.722;2023-04-02T12:21:59;6.50;;;2.13;;
76447;SDS011;65284;51.040;13.722;2023-04-02T12:24:26;9.60;;;2.85;;
76447;SDS011;65284;51.040;13.722;2023-04-02T12:29:33;6.75;;;2.80;;
76447;SDS011;65284;51.040;13.722;2023-04-02T12:32:01;6.93;;;3.15;;
76447;SDS011;65284;51.040;13.722;2023-04-02T12:34:29;6.22;;;2.30;;
76447;SDS011;65284;51.040;13.722;2023-04-02T12:36:57;4.80;;;2.33;;
76447;SDS011;65284;51.040;13.722;2023-04-02T12:39:25;5.70;;;2.25;;
76447;SDS011;65284;51.040;13.722;2023-04-02T12:41:53;4.47;;;2.17;;
76447;SDS011;65284;51.040;13.722;2023-04-02T12:44:21;4.60;;;2.40;;
76447;SDS011;65284;51.040;13.722;2023-04-02T12:46:50;4.88;;;2.50;;
76447;SDS011;65284;51.040;13.722;2023-04-02T12:49:36;6.00;;;2.53;;
76447;SDS011;65284;51.040;13.722;2023-04-02T12:52:05;4.97;;;2.78;;
76447;SDS011;65284;51.040;13.722;2023-04-02T12:54:35;4.57;;;2.47;;
76447;SDS011;65284;51.040;13.722;2023-04-02T12:57:20;3.97;;;1.98;;
76447;SDS011;65284;51.040;13.722;2023-04-02T13:02:23;4.05;;;1.60;;
76447;SDS011;65284;51.040;13.722;2023-04-02T13:04:52;4.47;;;1.85;;
76447;SDS011;65284;51.040;13.722;2023-04-02T13:07:26;5.20;;;1.67;;
76447;SDS011;65284;51.040;13.722;2023-04-02T13:09:56;5.28;;;2.20;;
76447;SDS011;65284;51.040;13.722;2023-04-02T13:12:28;4.70;;;1.90;;
76447;SDS011;65284;51.040;13.722;2023-04-02T13:15:00;4.97;;;2.13;;
76447;SDS011;65284;51.040;13.722;2023-04-02T13:17:45;5.13;;;2.00;;
76447;SDS011;65284;51.040;13.722;2023-04-02T13:20:48;4.93;;;1.48;;
76447;SDS011;65284;51.040;13.722;2023-04-02T13:25:52;4.95;;;1.60;;
76447;SDS011;65284;51.040;13.722;2023-04-02T13:28:19;4.28;;;1.30;;
76447;SDS011;65284;51.040;13.722;2023-04-02T13:30:46;3.50;;;1.10;;
76447;SDS011;65284;51.040;13.722;2023-04-02T13:33:13;3.58;;;1.30;;
76447;SDS011;65284;51.040;13.722;2023-04-02T13:35:40;3.75;;;1.20;;
76447;SDS011;65284;51.040;13.722;2023-04-02T13:38:07;3.63;;;1.02;;
76447;SDS011;65284;51.040;13.722;2023-04-02T13:40:34;3.75;;;1.20;;
76447;SDS011;65284;51.040;13.722;2023-04-02T13:43:05;3.00;;;1.17;;
76447;SDS011;65284;51.040;13.722;2023-04-02T13:45:35;3.55;;;1.05;;
76447;SDS011;65284;51.040;13.722;2023-04-02T13:48:03;3.63;;;1.40;;
76447;SDS011;65284;51.040;13.722;2023-04-02T13:50:32;3.88;;;0.80;;
76447;SDS011;65284;51.040;13.722;2023-04-02T13:53:04;6.05;;;1.45;;
76447;SDS011;65284;51.040;13.722;2023-04-02T13:55:36;2.63;;;1.25;;
76447;SDS011;65284;51.040;13.722;2023-04-02T13:58:07;5.18;;;1.30;;
76447;SDS011;65284;51.040;13.722;2023-04-02T14:00:34;3.22;;;1.50;;
76447;SDS011;65284;51.040;13.722;2023-04-02T14:03:04;3.95;;;1.30;;
76447;SDS011;65284;51.040;13.722;2023-04-02T14:05:40;6.55;;;2.05;;
76447;SDS011;65284;51.040;13.722;2023-04-02T14:08:30;2.70;;;1.05;;
76447;SDS011;65284;51.040;13.722;2023-04-02T14:13:55;4.32;;;1.20;;
76447;SDS011;65284;51.040;13.722;2023-04-02T14:24:54;3.15;;;1.30;;
76447;SDS011;65284;51.040;13.722;2023-04-02T14:27:47;4.25;;;1.63;;
76447;SDS011;65284;51.040;13.722;2023-04-02T14:33:26;3.92;;;1.20;;
76447;SDS011;65284;51.040;13.722;2023-04-02T14:36:23;3.75;;;1.23;;
76447;SDS011;65284;51.040;13.722;2023-04-02T14:38:57;3.63;;;1.50;;
76447;SDS011;65284;51.040;13.722;2023-04-02T14:41:31;3.90;;;1.83;;
76447;SDS011;65284;51.040;13.722;2023-04-02T14:44:06;3.78;;;1.38;;
76447;SDS011;65284;51.040;13.722;2023-04-02T14:46:36;3.42;;;1.70;;
76447;SDS011;65284;51.040;13.722;2023-04-02T14:49:08;4.82;;;1.98;;
76447;SDS011;65284;51.040;13.722;2023-04-02T14:51:50;4.28;;;1.85;;
76447;SDS011;65284;51.040;13.722;2023-04-02T14:55:05;4.90;;;2.20;;
76447;SDS011;65284;51.040;13.722;2023-04-02T14:57:34;4.25;;;2.28;;
76447;SDS011;65284;51.040;13.722;2023-04-02T15:00:25;5.28;;;2.55;;
76447;SDS011;65284;51.040;13.722;2023-04-02T15:03:17;6.10;;;2.95;;
76447;SDS011;65284;51.040;13.722;2023-04-02T15:05:58;4.03;;;2.17;;
76447;SDS011;65284;51.040;13.722;2023-04-02T15:08:27;4.78;;;2.30;;
76447;SDS011;65284;51.040;13.722;2023-04-02T15:13:47;6.72;;;3.05;;
76447;SDS011;65284;51.040;13.722;2023-04-02T15:16:18;19.75;;;6.88;;
76447;SDS011;65284;51.040;13.722;2023-04-02T15:18:49;4.47;;;2.08;;
76447;SDS011;65284;51.040;13.722;2023-04-02T15:26:32;4.65;;;1.85;;
76447;SDS011;65284;51.040;13.722;2023-04-02T15:29:38;5.38;;;1.95;;
76447;SDS011;65284;51.040;13.722;2023-04-02T15:35:30;4.40;;;1.80;;
76447;SDS011;65284;51.040;13.722;2023-04-02T15:37:44;4.53;;;1.60;;
76447;SDS011;65284;51.040;13.722;2023-04-02T15:43:43;5.90;;;1.50;;
76447;SDS011;65284;51.040;13.722;2023-04-02T15:46:25;6.13;;;1.40;;
76447;SDS011;65284;51.040;13.722;2023-04-02T15:52:23;4.93;;;1.40;;
76447;SDS011;65284;51.040;13.722;2023-04-02T15:55:07;4.30;;;1.40;;
76447;SDS011;65284;51.040;13.722;2023-04-02T16:00:50;4.75;;;1.55;;
76447;SDS011;65284;51.040;13.722;2023-04-02T16:03:46;3.53;;;1.60;;
76447;SDS011;65284;51.040;13.722;2023-04-02T16:06:25;5.07;;;1.67;;
76447;SDS011;65284;51.040;13.722;2023-04-02T16:09:16;4.20;;;1.90;;
76447;SDS011;65284;51.040;13.722;2023-04-02T16:11:54;4.03;;;1.40;;
76447;SDS011;65284;51.040;13.722;2023-04-02T16:14:27;4.13;;;1.75;;
76447;SDS011;65284;51.040;13.722;2023-04-02T16:16:58;2.50;;;1.30;;
76447;SDS011;65284;51.040;13.722;2023-04-02T16:19:53;8.25;;;2.78;;
76447;SDS011;65284;51.040;13.722;2023-04-02T16:22:42;7.38;;;2.25;;
76447;SDS011;65284;51.040;13.722;2023-04-02T16:25:25;3.90;;;1.67;;
76447;SDS011;65284;51.040;13.722;2023-04-02T16:28:07;4.15;;;1.65;;
76447;SDS011;65284;51.040;13.722;2023-04-02T16:50:44;3.97;;;1.63;;
76447;SDS011;65284;51.040;13.722;2023-04-02T16:53:35;3.42;;;1.25;;
76447;SDS011;65284;51.040;13.722;2023-04-02T16:56:34;3.85;;;1.55;;
76447;SDS011;65284;51.040;13.722;2023-04-02T16:59:47;3.70;;;1.50;;
76447;SDS011;65284;51.040;13.722;2023-04-02T17:10:56;3.15;;;1.35;;
76447;SDS011;65284;51.040;13.722;2023-04-02T17:13:27;3.85;;;1.77;;
76447;SDS011;65284;51.040;13.722;2023-04-02T17:16:18;5.35;;;1.73;;
76447;SDS011;65284;51.040;13.722;2023-04-02T17:19:04;4.22;;;1.90;;
76447;SDS011;65284;51.040;13.722;2023-04-02T17:21:34;3.42;;;1.33;;
76447;SDS011;65284;51.040;13.722;2023-04-02T17:26:39;2.88;;;1.30;;
76447;SDS011;65284;51.040;13.722;2023-04-02T17:29:10;4.65;;;1.40;;
76447;SDS011;65284;51.040;13.722;2023-04-02T17:31:42;4.70;;;1.80;;
76447;SDS011;65284;51.040;13.722;2023-04-02T17:34:11;5.18;;;1.92;;
76447;SDS011;65284;51.040;13.722;2023-04-02T17:39:40;3.80;;;1.90;;
76447;SDS011;65284;51.040;13.722;2023-04-02T17:42:23;3.78;;;1.95;;
76447;SDS011;65284;51.040;13.722;2023-04-02T17:45:03;4.63;;;2.00;;
76447;SDS011;65284;51.040;13.722;2023-04-02T17:48:00;6.68;;;2.28;;
76447;SDS011;65284;51.040;13.722;2023-04-02T17:59:26;4.82;;;1.83;;
76447;SDS011;65284;51.040;13.722;2023-04-02T18:07:34;4.20;;;1.95;;
76447;SDS011;65284;51.040;13.722;2023-04-02T18:10:34;5.20;;;2.10;;
76447;SDS011;65284;51.040;13.722;2023-04-02T18:16:03;4.53;;;1.95;;
76447;SDS011;65284;51.040;13.722;2023-04-02T18:18:39;5.00;;;2.33;;
76447;SDS011;65284;51.040;13.722;2023-04-02T18:30:01;4.30;;;2.00;;
76447;SDS011;65284;51.040;13.722;2023-04-02T18:35:32;4.82;;;1.80;;
76447;SDS011;65284;51.040;13.722;2023-04-02T18:38:03;5.88;;;2.47;;
76447;SDS011;65284;51.040;13.722;2023-04-02T18:43:49;4.45;;;2.00;;
76447;SDS011;65284;51.040;13.722;2023-04-02T18:46:31;7.60;;;3.08;;
76447;SDS011;65284;51.040;13.722;2023-04-02T18:49:19;5.15;;;2.10;;
76447;SDS011;65284;51.040;13.722;2023-04-02T18:54:35;4.45;;;1.88;;
76447;SDS011;65284;51.040;13.722;2023-04-02T18:57:15;4.35;;;2.22;;
76447;SDS011;65284;51.040;13.722;2023-04-02T18:59:50;6.63;;;2.40;;
76447;SDS011;65284;51.040;13.722;2023-04-02T19:05:19;6.05;;;3.00;;
76447;SDS011;65284;51.040;13.722;2023-04-02T19:07:51;5.93;;;2.72;;
76447;SDS011;65284;51.040;13.722;2023-04-02T19:10:33;7.78;;;2.72;;
76447;SDS011;65284;51.040;13.722;2023-04-02T19:13:06;7.45;;;3.08;;
76447;SDS011;65284;51.040;13.722;2023-04-02T19:15:40;7.88;;;2.70;;
76447;SDS011;65284;51.040;13.722;2023-04-02T19:18:18;5.55;;;2.70;;
76447;SDS011;65284;51.040;13.722;2023-04-02T19:21:01;6.35;;;2.80;;
76447;SDS011;65284;51.040;13.722;2023-04-02T19:35:42;7.53;;;3.30;;
76447;SDS011;65284;51.040;13.722;2023-04-02T19:41:38;5.43;;;2.55;;
76447;SDS011;65284;51.040;13.722;2023-04-02T19:44:07;6.35;;;3.00;;
76447;SDS011;65284;51.040;13.722;2023-04-02T19:46:37;5.70;;;2.92;;